sensor_id;sensor_type;location;lat;lon;timestamp;P1;durP1;ratioP1;P2;durP2;ratioP2
64826;SDS011;51265;53.972;12.286;2022-12-18T00:01:27;30.83;;;13.35;;
64826;SDS011;51265;53.972;12.286;2022-12-18T00:03:55;33.75;;;12.60;;
64826;SDS011;51265;53.972;12.286;2022-12-18T00:06:21;34.13;;;12.60;;
64826;SDS011;51265;53.972;12.286;2022-12-18T00:08:47;38.30;;;13.10;;
64826;SDS011;51265;53.972;12.286;2022-12-18T00:11:15;33.33;;;13.35;;
64826;SDS011;51265;53.972;12.286;2022-12-18T00:13:44;33.17;;;12.48;;
64826;SDS011;51265;53.972;12.286;2022-12-18T00:16:15;35.75;;;12.73;;
64826;SDS011;51265;53.972;12.286;2022-12-18T00:18:43;43.20;;;13.95;;
64826;SDS011;51265;53.972;12.286;2022-12-18T00:21:10;35.72;;;12.65;;
64826;SDS011;51265;53.972;12.286;2022-12-18T00:23:38;41.45;;;14.45;;
64826;SDS011;51265;53.972;12.286;2022-12-18T00:26:06;40.33;;;12.93;;
64826;SDS011;51265;53.972;12.286;2022-12-18T00:28:35;34.05;;;12.30;;
64826;SDS011;51265;53.972;12.286;2022-12-18T00:31:09;38.38;;;13.38;;
64826;SDS011;51265;53.972;12.286;2022-12-18T00:33:36;43.10;;;12.93;;
64826;SDS011;51265;53.972;12.286;2022-12-18T00:36:13;40.08;;;14.27;;
64826;SDS011;51265;53.972;12.286;2022-12-18T00:38:40;35.42;;;12.55;;
64826;SDS011;51265;53.972;12.286;2022-12-18T00:41:07;36.08;;;13.18;;
64826;SDS011;51265;53.972;12.286;2022-12-18T00:43:35;35.10;;;12.43;;
64826;SDS011;51265;53.972;12.286;2022-12-18T00:46:01;37.50;;;13.32;;
64826;SDS011;51265;53.972;12.286;2022-12-18T00:48:27;34.90;;;11.88;;
64826;SDS011;51265;53.972;12.286;2022-12-18T00:50:53;36.70;;;12.55;;
64826;SDS011;51265;53.972;12.286;2022-12-18T00:53:19;44.05;;;14.07;;
64826;SDS011;51265;53.972;12.286;2022-12-18T00:55:45;36.10;;;12.55;;
64826;SDS011;51265;53.972;12.286;2022-12-18T00:58:11;38.25;;;13.38;;
64826;SDS011;51265;53.972;12.286;2022-12-18T01:00:39;29.30;;;11.77;;
64826;SDS011;51265;53.972;12.286;2022-12-18T01:03:05;31.33;;;11.65;;
64826;SDS011;51265;53.972;12.286;2022-12-18T01:05:31;40.92;;;13.20;;
64826;SDS011;51265;53.972;12.286;2022-12-18T01:07:57;35.53;;;12.00;;
64826;SDS011;51265;53.972;12.286;2022-12-18T01:10:24;40.28;;;13.68;;
64826;SDS011;51265;53.972;12.286;2022-12-18T01:12:50;36.50;;;13.18;;
64826;SDS011;51265;53.972;12.286;2022-12-18T01:15:17;36.83;;;11.35;;
64826;SDS011;51265;53.972;12.286;2022-12-18T01:17:58;28.17;;;11.32;;
64826;SDS011;51265;53.972;12.286;2022-12-18T01:20:26;35.60;;;12.70;;
64826;SDS011;51265;53.972;12.286;2022-12-18T01:22:51;38.47;;;12.52;;
64826;SDS011;51265;53.972;12.286;2022-12-18T01:25:17;37.15;;;13.38;;
64826;SDS011;51265;53.972;12.286;2022-12-18T01:27:43;37.17;;;11.93;;
64826;SDS011;51265;53.972;12.286;2022-12-18T01:30:09;33.90;;;12.13;;
64826;SDS011;51265;53.972;12.286;2022-12-18T01:32:35;32.70;;;12.02;;
64826;SDS011;51265;53.972;12.286;2022-12-18T01:35:01;37.80;;;12.40;;
64826;SDS011;51265;53.972;12.286;2022-12-18T01:37:28;32.78;;;12.52;;
64826;SDS011;51265;53.972;12.286;2022-12-18T01:39:53;39.95;;;12.80;;
64826;SDS011;51265;53.972;12.286;2022-12-18T01:42:20;37.17;;;12.43;;
64826;SDS011;51265;53.972;12.286;2022-12-18T01:49:59;37.95;;;13.00;;
64826;SDS011;51265;53.972;12.286;2022-12-18T01:52:29;37.58;;;12.02;;
64826;SDS011;51265;53.972;12.286;2022-12-18T01:54:58;31.70;;;12.15;;
64826;SDS011;51265;53.972;12.286;2022-12-18T01:57:26;33.78;;;11.73;;
64826;SDS011;51265;53.972;12.286;2022-12-18T01:59:53;27.60;;;10.65;;
64826;SDS011;51265;53.972;12.286;2022-12-18T02:02:25;35.70;;;13.35;;
64826;SDS011;51265;53.972;12.286;2022-12-18T02:04:53;34.97;;;11.90;;
64826;SDS011;51265;53.972;12.286;2022-12-18T02:10:10;29.13;;;11.40;;
64826;SDS011;51265;53.972;12.286;2022-12-18T02:12:46;35.53;;;12.60;;
64826;SDS011;51265;53.972;12.286;2022-12-18T02:15:19;28.35;;;10.43;;
64826;SDS011;51265;53.972;12.286;2022-12-18T02:18:28;35.15;;;12.38;;
64826;SDS011;51265;53.972;12.286;2022-12-18T02:23:37;29.83;;;9.63;;
64826;SDS011;51265;53.972;12.286;2022-12-18T02:28:42;30.83;;;11.00;;
64826;SDS011;51265;53.972;12.286;2022-12-18T02:31:21;26.85;;;9.57;;
64826;SDS011;51265;53.972;12.286;2022-12-18T02:33:52;30.55;;;10.65;;
64826;SDS011;51265;53.972;12.286;2022-12-18T02:36:21;32.35;;;10.90;;
64826;SDS011;51265;53.972;12.286;2022-12-18T02:38:49;30.23;;;11.35;;
64826;SDS011;51265;53.972;12.286;2022-12-18T02:41:16;29.02;;;11.30;;
64826;SDS011;51265;53.972;12.286;2022-12-18T02:43:47;30.17;;;10.88;;
64826;SDS011;51265;53.972;12.286;2022-12-18T02:46:31;29.95;;;10.80;;
64826;SDS011;51265;53.972;12.286;2022-12-18T02:49:08;32.38;;;11.52;;
64826;SDS011;51265;53.972;12.286;2022-12-18T02:52:01;32.67;;;10.50;;
64826;SDS011;51265;53.972;12.286;2022-12-18T03:00:58;25.35;;;9.77;;
64826;SDS011;51265;53.972;12.286;2022-12-18T03:03:36;28.30;;;10.77;;
64826;SDS011;51265;53.972;12.286;2022-12-18T03:06:15;24.52;;;10.77;;
64826;SDS011;51265;53.972;12.286;2022-12-18T03:08:55;27.50;;;10.77;;
64826;SDS011;51265;53.972;12.286;2022-12-18T03:14:13;26.90;;;9.70;;
64826;SDS011;51265;53.972;12.286;2022-12-18T03:16:43;28.38;;;9.75;;
64826;SDS011;51265;53.972;12.286;2022-12-18T03:19:11;31.70;;;10.43;;
64826;SDS011;51265;53.972;12.286;2022-12-18T03:21:45;29.30;;;9.80;;
64826;SDS011;51265;53.972;12.286;2022-12-18T03:24:16;31.45;;;11.23;;
64826;SDS011;51265;53.972;12.286;2022-12-18T03:26:46;29.08;;;10.57;;
64826;SDS011;51265;53.972;12.286;2022-12-18T03:29:18;34.15;;;9.93;;
64826;SDS011;51265;53.972;12.286;2022-12-18T03:31:49;27.63;;;9.50;;
64826;SDS011;51265;53.972;12.286;2022-12-18T03:34:21;25.63;;;10.85;;
64826;SDS011;51265;53.972;12.286;2022-12-18T03:36:53;27.55;;;9.40;;
64826;SDS011;51265;53.972;12.286;2022-12-18T03:39:19;30.40;;;11.02;;
64826;SDS011;51265;53.972;12.286;2022-12-18T03:42:07;30.92;;;10.50;;
64826;SDS011;51265;53.972;12.286;2022-12-18T03:45:02;25.92;;;8.98;;
64826;SDS011;51265;53.972;12.286;2022-12-18T03:47:52;25.60;;;9.50;;
64826;SDS011;51265;53.972;12.286;2022-12-18T03:50:38;28.20;;;9.95;;
64826;SDS011;51265;53.972;12.286;2022-12-18T03:53:21;24.65;;;10.38;;
64826;SDS011;51265;53.972;12.286;2022-12-18T03:55:49;24.02;;;9.30;;
64826;SDS011;51265;53.972;12.286;2022-12-18T03:58:18;30.23;;;9.63;;
64826;SDS011;51265;53.972;12.286;2022-12-18T04:00:56;26.65;;;9.48;;
64826;SDS011;51265;53.972;12.286;2022-12-18T04:03:27;25.10;;;9.35;;
64826;SDS011;51265;53.972;12.286;2022-12-18T04:05:56;25.63;;;10.38;;
64826;SDS011;51265;53.972;12.286;2022-12-18T04:08:26;32.67;;;10.45;;
64826;SDS011;51265;53.972;12.286;2022-12-18T04:11:02;28.48;;;8.68;;
64826;SDS011;51265;53.972;12.286;2022-12-18T04:13:29;27.88;;;9.48;;
64826;SDS011;51265;53.972;12.286;2022-12-18T04:16:01;26.80;;;9.63;;
64826;SDS011;51265;53.972;12.286;2022-12-18T04:18:27;31.98;;;9.88;;
64826;SDS011;51265;53.972;12.286;2022-12-18T04:20:54;25.55;;;9.98;;
64826;SDS011;51265;53.972;12.286;2022-12-18T04:23:19;22.35;;;8.85;;
64826;SDS011;51265;53.972;12.286;2022-12-18T04:25:46;25.23;;;8.77;;
64826;SDS011;51265;53.972;12.286;2022-12-18T04:28:18;24.55;;;9.07;;
64826;SDS011;51265;53.972;12.286;2022-12-18T04:30:44;21.88;;;9.07;;
64826;SDS011;51265;53.972;12.286;2022-12-18T04:33:10;24.48;;;8.98;;
64826;SDS011;51265;53.972;12.286;2022-12-18T04:35:38;21.52;;;7.95;;
64826;SDS011;51265;53.972;12.286;2022-12-18T04:38:05;21.63;;;8.07;;
64826;SDS011;51265;53.972;12.286;2022-12-18T04:40:32;27.67;;;9.75;;
64826;SDS011;51265;53.972;12.286;2022-12-18T04:43:03;24.42;;;8.30;;
64826;SDS011;51265;53.972;12.286;2022-12-18T04:45:32;25.90;;;9.02;;
64826;SDS011;51265;53.972;12.286;2022-12-18T04:47:59;27.95;;;8.43;;
64826;SDS011;51265;53.972;12.286;2022-12-18T04:50:26;20.65;;;7.95;;
64826;SDS011;51265;53.972;12.286;2022-12-18T04:52:52;19.50;;;7.78;;
64826;SDS011;51265;53.972;12.286;2022-12-18T04:55:18;26.17;;;8.13;;
64826;SDS011;51265;53.972;12.286;2022-12-18T04:57:44;24.02;;;8.27;;
64826;SDS011;51265;53.972;12.286;2022-12-18T05:00:10;26.33;;;8.88;;
64826;SDS011;51265;53.972;12.286;2022-12-18T05:02:37;27.15;;;9.55;;
64826;SDS011;51265;53.972;12.286;2022-12-18T05:05:03;21.23;;;8.63;;
64826;SDS011;51265;53.972;12.286;2022-12-18T05:07:29;20.08;;;8.43;;
64826;SDS011;51265;53.972;12.286;2022-12-18T05:09:54;24.42;;;9.02;;
64826;SDS011;51265;53.972;12.286;2022-12-18T05:12:20;20.45;;;7.53;;
64826;SDS011;51265;53.972;12.286;2022-12-18T05:14:49;24.60;;;8.75;;
64826;SDS011;51265;53.972;12.286;2022-12-18T05:17:14;23.73;;;8.38;;
64826;SDS011;51265;53.972;12.286;2022-12-18T05:19:40;27.80;;;9.98;;
64826;SDS011;51265;53.972;12.286;2022-12-18T05:22:06;28.42;;;9.57;;
64826;SDS011;51265;53.972;12.286;2022-12-18T05:24:35;23.30;;;8.65;;
64826;SDS011;51265;53.972;12.286;2022-12-18T05:27:01;25.25;;;8.77;;
64826;SDS011;51265;53.972;12.286;2022-12-18T05:29:27;22.27;;;8.68;;
64826;SDS011;51265;53.972;12.286;2022-12-18T05:31:52;28.35;;;8.40;;
64826;SDS011;51265;53.972;12.286;2022-12-18T05:34:18;21.13;;;8.57;;
64826;SDS011;51265;53.972;12.286;2022-12-18T05:36:44;27.33;;;9.00;;
64826;SDS011;51265;53.972;12.286;2022-12-18T05:39:10;27.23;;;9.48;;
64826;SDS011;51265;53.972;12.286;2022-12-18T05:41:36;28.38;;;10.48;;
64826;SDS011;51265;53.972;12.286;2022-12-18T05:44:02;24.17;;;9.02;;
64826;SDS011;51265;53.972;12.286;2022-12-18T05:46:27;26.88;;;9.55;;
64826;SDS011;51265;53.972;12.286;2022-12-18T05:48:53;27.13;;;9.63;;
64826;SDS011;51265;53.972;12.286;2022-12-18T05:51:20;28.80;;;9.50;;
64826;SDS011;51265;53.972;12.286;2022-12-18T05:53:47;25.77;;;9.07;;
64826;SDS011;51265;53.972;12.286;2022-12-18T05:56:15;24.40;;;9.35;;
64826;SDS011;51265;53.972;12.286;2022-12-18T05:58:45;29.75;;;9.88;;
64826;SDS011;51265;53.972;12.286;2022-12-18T06:01:19;28.05;;;9.68;;
64826;SDS011;51265;53.972;12.286;2022-12-18T06:03:47;26.73;;;9.88;;
64826;SDS011;51265;53.972;12.286;2022-12-18T06:06:16;28.45;;;9.70;;
64826;SDS011;51265;53.972;12.286;2022-12-18T06:08:44;26.35;;;9.40;;
64826;SDS011;51265;53.972;12.286;2022-12-18T06:11:11;28.25;;;10.13;;
64826;SDS011;51265;53.972;12.286;2022-12-18T06:13:37;25.80;;;9.85;;
64826;SDS011;51265;53.972;12.286;2022-12-18T06:16:06;26.35;;;10.00;;
64826;SDS011;51265;53.972;12.286;2022-12-18T06:18:33;32.45;;;10.98;;
64826;SDS011;51265;53.972;12.286;2022-12-18T06:21:02;29.05;;;10.50;;
64826;SDS011;51265;53.972;12.286;2022-12-18T06:23:28;38.20;;;11.50;;
64826;SDS011;51265;53.972;12.286;2022-12-18T06:25:54;29.52;;;11.35;;
64826;SDS011;51265;53.972;12.286;2022-12-18T06:28:20;36.00;;;10.00;;
64826;SDS011;51265;53.972;12.286;2022-12-18T06:30:46;27.85;;;10.10;;
64826;SDS011;51265;53.972;12.286;2022-12-18T06:33:14;39.45;;;12.88;;
64826;SDS011;51265;53.972;12.286;2022-12-18T06:35:40;37.80;;;12.63;;
64826;SDS011;51265;53.972;12.286;2022-12-18T06:38:07;36.05;;;12.02;;
64826;SDS011;51265;53.972;12.286;2022-12-18T06:40:33;33.92;;;11.70;;
64826;SDS011;51265;53.972;12.286;2022-12-18T06:42:58;37.90;;;9.95;;
64826;SDS011;51265;53.972;12.286;2022-12-18T06:45:24;38.08;;;11.13;;
64826;SDS011;51265;53.972;12.286;2022-12-18T06:47:50;37.25;;;12.10;;
64826;SDS011;51265;53.972;12.286;2022-12-18T06:50:16;29.67;;;11.60;;
64826;SDS011;51265;53.972;12.286;2022-12-18T06:52:42;28.67;;;10.50;;
64826;SDS011;51265;53.972;12.286;2022-12-18T06:55:10;32.92;;;11.73;;
64826;SDS011;51265;53.972;12.286;2022-12-18T06:57:36;34.92;;;11.75;;
64826;SDS011;51265;53.972;12.286;2022-12-18T07:00:03;33.67;;;10.45;;
64826;SDS011;51265;53.972;12.286;2022-12-18T07:02:31;33.50;;;10.98;;
64826;SDS011;51265;53.972;12.286;2022-12-18T07:04:57;35.88;;;11.25;;
64826;SDS011;51265;53.972;12.286;2022-12-18T07:07:23;32.95;;;10.73;;
64826;SDS011;51265;53.972;12.286;2022-12-18T07:09:50;31.15;;;10.48;;
64826;SDS011;51265;53.972;12.286;2022-12-18T07:12:16;36.97;;;11.80;;
64826;SDS011;51265;53.972;12.286;2022-12-18T07:14:42;28.83;;;10.77;;
64826;SDS011;51265;53.972;12.286;2022-12-18T07:17:07;32.05;;;10.70;;
64826;SDS011;51265;53.972;12.286;2022-12-18T07:19:33;30.83;;;10.90;;
64826;SDS011;51265;53.972;12.286;2022-12-18T07:21:59;27.88;;;12.00;;
64826;SDS011;51265;53.972;12.286;2022-12-18T07:24:26;34.03;;;11.77;;
64826;SDS011;51265;53.972;12.286;2022-12-18T07:26:51;29.77;;;10.50;;
64826;SDS011;51265;53.972;12.286;2022-12-18T07:29:17;65.72;;;24.77;;
64826;SDS011;51265;53.972;12.286;2022-12-18T07:31:44;37.15;;;12.13;;
64826;SDS011;51265;53.972;12.286;2022-12-18T07:34:10;33.47;;;12.20;;
64826;SDS011;51265;53.972;12.286;2022-12-18T07:36:37;32.90;;;11.63;;
64826;SDS011;51265;53.972;12.286;2022-12-18T07:39:03;35.13;;;10.88;;
64826;SDS011;51265;53.972;12.286;2022-12-18T07:41:29;28.55;;;11.13;;
64826;SDS011;51265;53.972;12.286;2022-12-18T07:43:54;34.72;;;10.77;;
64826;SDS011;51265;53.972;12.286;2022-12-18T07:46:20;32.08;;;10.55;;
64826;SDS011;51265;53.972;12.286;2022-12-18T07:48:46;32.72;;;11.15;;
64826;SDS011;51265;53.972;12.286;2022-12-18T07:51:12;30.20;;;10.35;;
64826;SDS011;51265;53.972;12.286;2022-12-18T07:53:39;33.50;;;10.65;;
64826;SDS011;51265;53.972;12.286;2022-12-18T07:56:06;30.15;;;10.68;;
64826;SDS011;51265;53.972;12.286;2022-12-18T07:58:36;30.67;;;10.35;;
64826;SDS011;51265;53.972;12.286;2022-12-18T08:01:04;34.40;;;10.93;;
64826;SDS011;51265;53.972;12.286;2022-12-18T08:03:34;29.05;;;10.45;;
64826;SDS011;51265;53.972;12.286;2022-12-18T08:06:01;27.77;;;10.63;;
64826;SDS011;51265;53.972;12.286;2022-12-18T08:08:28;29.27;;;11.20;;
64826;SDS011;51265;53.972;12.286;2022-12-18T08:10:54;28.77;;;10.25;;
64826;SDS011;51265;53.972;12.286;2022-12-18T08:13:20;25.42;;;10.00;;
64826;SDS011;51265;53.972;12.286;2022-12-18T08:15:46;29.45;;;11.20;;
64826;SDS011;51265;53.972;12.286;2022-12-18T08:18:20;31.25;;;10.88;;
64826;SDS011;51265;53.972;12.286;2022-12-18T08:20:46;29.70;;;10.60;;
64826;SDS011;51265;53.972;12.286;2022-12-18T08:23:11;32.25;;;11.18;;
64826;SDS011;51265;53.972;12.286;2022-12-18T08:25:37;30.13;;;11.10;;
64826;SDS011;51265;53.972;12.286;2022-12-18T08:28:03;29.15;;;9.70;;
64826;SDS011;51265;53.972;12.286;2022-12-18T08:30:29;37.38;;;12.43;;
64826;SDS011;51265;53.972;12.286;2022-12-18T08:32:55;31.75;;;10.75;;
64826;SDS011;51265;53.972;12.286;2022-12-18T08:35:20;37.03;;;12.43;;
64826;SDS011;51265;53.972;12.286;2022-12-18T08:37:47;31.75;;;11.68;;
64826;SDS011;51265;53.972;12.286;2022-12-18T08:40:12;31.30;;;12.25;;
64826;SDS011;51265;53.972;12.286;2022-12-18T08:42:38;33.55;;;11.68;;
64826;SDS011;51265;53.972;12.286;2022-12-18T08:45:23;32.50;;;11.40;;
64826;SDS011;51265;53.972;12.286;2022-12-18T08:47:50;46.38;;;12.80;;
64826;SDS011;51265;53.972;12.286;2022-12-18T08:50:16;34.63;;;12.13;;
64826;SDS011;51265;53.972;12.286;2022-12-18T08:52:42;31.38;;;10.90;;
64826;SDS011;51265;53.972;12.286;2022-12-18T08:55:08;31.58;;;11.00;;
64826;SDS011;51265;53.972;12.286;2022-12-18T08:57:34;32.95;;;12.55;;
64826;SDS011;51265;53.972;12.286;2022-12-18T09:00:00;31.05;;;11.95;;
64826;SDS011;51265;53.972;12.286;2022-12-18T09:02:26;32.08;;;12.07;;
64826;SDS011;51265;53.972;12.286;2022-12-18T09:04:52;35.05;;;11.60;;
64826;SDS011;51265;53.972;12.286;2022-12-18T09:07:17;30.42;;;11.68;;
64826;SDS011;51265;53.972;12.286;2022-12-18T09:09:43;31.92;;;11.80;;
64826;SDS011;51265;53.972;12.286;2022-12-18T09:12:09;36.65;;;12.68;;
64826;SDS011;51265;53.972;12.286;2022-12-18T09:14:35;30.67;;;12.00;;
64826;SDS011;51265;53.972;12.286;2022-12-18T09:17:01;31.42;;;11.77;;
64826;SDS011;51265;53.972;12.286;2022-12-18T09:19:37;29.88;;;11.52;;
64826;SDS011;51265;53.972;12.286;2022-12-18T09:22:03;32.17;;;12.27;;
64826;SDS011;51265;53.972;12.286;2022-12-18T09:24:29;38.90;;;12.95;;
64826;SDS011;51265;53.972;12.286;2022-12-18T09:26:55;31.92;;;12.15;;
64826;SDS011;51265;53.972;12.286;2022-12-18T09:29:21;34.22;;;13.77;;
64826;SDS011;51265;53.972;12.286;2022-12-18T09:31:47;36.45;;;12.10;;
64826;SDS011;51265;53.972;12.286;2022-12-18T09:34:15;35.25;;;12.73;;
64826;SDS011;51265;53.972;12.286;2022-12-18T09:36:42;35.13;;;12.32;;
64826;SDS011;51265;53.972;12.286;2022-12-18T09:39:08;34.50;;;13.32;;
64826;SDS011;51265;53.972;12.286;2022-12-18T09:41:44;32.92;;;11.55;;
64826;SDS011;51265;53.972;12.286;2022-12-18T09:44:35;37.25;;;14.20;;
64826;SDS011;51265;53.972;12.286;2022-12-18T09:47:09;39.88;;;13.07;;
64826;SDS011;51265;53.972;12.286;2022-12-18T09:49:42;36.17;;;13.48;;
64826;SDS011;51265;53.972;12.286;2022-12-18T09:52:17;37.25;;;12.52;;
64826;SDS011;51265;53.972;12.286;2022-12-18T09:54:54;36.65;;;13.20;;
64826;SDS011;51265;53.972;12.286;2022-12-18T09:57:25;32.75;;;12.43;;
64826;SDS011;51265;53.972;12.286;2022-12-18T10:00:03;38.80;;;13.27;;
64826;SDS011;51265;53.972;12.286;2022-12-18T10:02:42;40.67;;;13.43;;
64826;SDS011;51265;53.972;12.286;2022-12-18T10:05:12;39.72;;;14.77;;
64826;SDS011;51265;53.972;12.286;2022-12-18T10:10:40;34.70;;;12.68;;
64826;SDS011;51265;53.972;12.286;2022-12-18T10:13:17;36.85;;;14.07;;
64826;SDS011;51265;53.972;12.286;2022-12-18T10:15:53;36.05;;;13.70;;
64826;SDS011;51265;53.972;12.286;2022-12-18T10:18:37;41.28;;;14.65;;
64826;SDS011;51265;53.972;12.286;2022-12-18T10:21:15;37.50;;;13.57;;
64826;SDS011;51265;53.972;12.286;2022-12-18T10:26:43;39.22;;;15.05;;
64826;SDS011;51265;53.972;12.286;2022-12-18T10:29:10;36.60;;;14.10;;
64826;SDS011;51265;53.972;12.286;2022-12-18T10:31:38;37.00;;;12.68;;
64826;SDS011;51265;53.972;12.286;2022-12-18T10:34:04;41.72;;;14.88;;
64826;SDS011;51265;53.972;12.286;2022-12-18T10:36:34;42.30;;;15.35;;
64826;SDS011;51265;53.972;12.286;2022-12-18T10:39:13;38.28;;;14.13;;
64826;SDS011;51265;53.972;12.286;2022-12-18T10:41:52;36.15;;;13.88;;
64826;SDS011;51265;53.972;12.286;2022-12-18T10:44:34;36.67;;;13.98;;
64826;SDS011;51265;53.972;12.286;2022-12-18T10:47:04;37.17;;;13.18;;
64826;SDS011;51265;53.972;12.286;2022-12-18T10:49:32;37.47;;;14.02;;
64826;SDS011;51265;53.972;12.286;2022-12-18T10:52:19;39.15;;;14.95;;
64826;SDS011;51265;53.972;12.286;2022-12-18T10:54:56;38.40;;;13.50;;
64826;SDS011;51265;53.972;12.286;2022-12-18T10:57:29;36.45;;;15.15;;
64826;SDS011;51265;53.972;12.286;2022-12-18T10:59:58;38.42;;;14.00;;
64826;SDS011;51265;53.972;12.286;2022-12-18T11:02:26;43.63;;;14.18;;
64826;SDS011;51265;53.972;12.286;2022-12-18T11:05:00;36.03;;;13.65;;
64826;SDS011;51265;53.972;12.286;2022-12-18T11:07:40;48.25;;;15.45;;
64826;SDS011;51265;53.972;12.286;2022-12-18T11:10:18;42.78;;;13.32;;
64826;SDS011;51265;53.972;12.286;2022-12-18T11:12:46;43.05;;;14.70;;
64826;SDS011;51265;53.972;12.286;2022-12-18T11:15:30;40.38;;;13.82;;
64826;SDS011;51265;53.972;12.286;2022-12-18T11:17:56;31.92;;;13.23;;
64826;SDS011;51265;53.972;12.286;2022-12-18T11:20:27;35.05;;;14.05;;
64826;SDS011;51265;53.972;12.286;2022-12-18T11:23:04;37.95;;;13.55;;
64826;SDS011;51265;53.972;12.286;2022-12-18T11:25:36;39.10;;;14.15;;
64826;SDS011;51265;53.972;12.286;2022-12-18T11:28:03;46.58;;;14.57;;
64826;SDS011;51265;53.972;12.286;2022-12-18T11:30:34;38.05;;;13.82;;
64826;SDS011;51265;53.972;12.286;2022-12-18T11:35:58;41.35;;;13.85;;
64826;SDS011;51265;53.972;12.286;2022-12-18T11:38:32;37.20;;;13.00;;
64826;SDS011;51265;53.972;12.286;2022-12-18T11:44:09;38.45;;;14.18;;
64826;SDS011;51265;53.972;12.286;2022-12-18T11:46:43;35.65;;;13.45;;
64826;SDS011;51265;53.972;12.286;2022-12-18T11:49:33;39.10;;;13.43;;
64826;SDS011;51265;53.972;12.286;2022-12-18T11:54:41;40.38;;;14.38;;
64826;SDS011;51265;53.972;12.286;2022-12-18T11:59:55;39.42;;;13.02;;
64826;SDS011;51265;53.972;12.286;2022-12-18T12:05:39;41.75;;;14.40;;
64826;SDS011;51265;53.972;12.286;2022-12-18T12:11:15;41.92;;;13.80;;
64826;SDS011;51265;53.972;12.286;2022-12-18T12:16:44;39.60;;;13.55;;
64826;SDS011;51265;53.972;12.286;2022-12-18T12:22:08;40.45;;;14.10;;
64826;SDS011;51265;53.972;12.286;2022-12-18T12:24:47;37.00;;;12.93;;
64826;SDS011;51265;53.972;12.286;2022-12-18T12:28:01;39.75;;;14.15;;
64826;SDS011;51265;53.972;12.286;2022-12-18T12:37:17;45.33;;;14.18;;
64826;SDS011;51265;53.972;12.286;2022-12-18T12:39:46;37.53;;;14.63;;
64826;SDS011;51265;53.972;12.286;2022-12-18T12:42:35;38.97;;;15.45;;
64826;SDS011;51265;53.972;12.286;2022-12-18T12:45:28;38.00;;;14.35;;
64826;SDS011;51265;53.972;12.286;2022-12-18T12:48:02;32.22;;;13.30;;
64826;SDS011;51265;53.972;12.286;2022-12-18T12:50:33;38.83;;;13.10;;
64826;SDS011;51265;53.972;12.286;2022-12-18T12:53:01;33.65;;;12.48;;
64826;SDS011;51265;53.972;12.286;2022-12-18T12:55:34;35.50;;;13.10;;
64826;SDS011;51265;53.972;12.286;2022-12-18T13:01:02;37.97;;;14.93;;
64826;SDS011;51265;53.972;12.286;2022-12-18T13:03:35;40.63;;;14.15;;
64826;SDS011;51265;53.972;12.286;2022-12-18T13:06:12;33.75;;;12.70;;
64826;SDS011;51265;53.972;12.286;2022-12-18T13:08:53;36.80;;;13.32;;
64826;SDS011;51265;53.972;12.286;2022-12-18T13:11:37;38.42;;;12.98;;
64826;SDS011;51265;53.972;12.286;2022-12-18T13:14:29;31.05;;;12.73;;
64826;SDS011;51265;53.972;12.286;2022-12-18T13:19:44;39.58;;;15.10;;
64826;SDS011;51265;53.972;12.286;2022-12-18T13:22:20;40.63;;;14.73;;
64826;SDS011;51265;53.972;12.286;2022-12-18T13:28:05;39.45;;;14.25;;
64826;SDS011;51265;53.972;12.286;2022-12-18T13:41:20;45.03;;;15.77;;
64826;SDS011;51265;53.972;12.286;2022-12-18T13:43:50;41.72;;;16.08;;
64826;SDS011;51265;53.972;12.286;2022-12-18T13:46:22;41.75;;;14.35;;
64826;SDS011;51265;53.972;12.286;2022-12-18T13:51:39;41.35;;;14.38;;
64826;SDS011;51265;53.972;12.286;2022-12-18T13:57:01;38.28;;;14.75;;
64826;SDS011;51265;53.972;12.286;2022-12-18T14:02:07;39.63;;;14.55;;
64826;SDS011;51265;53.972;12.286;2022-12-18T14:04:38;39.08;;;14.82;;
64826;SDS011;51265;53.972;12.286;2022-12-18T14:07:05;40.53;;;13.52;;
64826;SDS011;51265;53.972;12.286;2022-12-18T14:09:39;42.00;;;14.75;;
64826;SDS011;51265;53.972;12.286;2022-12-18T14:12:14;38.00;;;13.98;;
64826;SDS011;51265;53.972;12.286;2022-12-18T14:15:02;33.25;;;14.38;;
64826;SDS011;51265;53.972;12.286;2022-12-18T14:17:30;44.83;;;15.32;;
64826;SDS011;51265;53.972;12.286;2022-12-18T14:19:57;43.08;;;14.88;;
64826;SDS011;51265;53.972;12.286;2022-12-18T14:22:24;37.63;;;13.85;;
64826;SDS011;51265;53.972;12.286;2022-12-18T14:30:37;43.10;;;14.43;;
64826;SDS011;51265;53.972;12.286;2022-12-18T14:35:40;42.53;;;14.48;;
64826;SDS011;51265;53.972;12.286;2022-12-18T14:38:09;42.33;;;14.77;;
64826;SDS011;51265;53.972;12.286;2022-12-18T14:40:41;33.88;;;13.40;;
64826;SDS011;51265;53.972;12.286;2022-12-18T14:43:11;36.63;;;13.20;;
64826;SDS011;51265;53.972;12.286;2022-12-18T14:45:37;39.13;;;13.35;;
64826;SDS011;51265;53.972;12.286;2022-12-18T14:48:09;39.83;;;13.07;;
64826;SDS011;51265;53.972;12.286;2022-12-18T14:50:43;34.53;;;13.02;;
64826;SDS011;51265;53.972;12.286;2022-12-18T14:53:20;39.85;;;14.23;;
64826;SDS011;51265;53.972;12.286;2022-12-18T14:55:54;37.47;;;13.57;;
64826;SDS011;51265;53.972;12.286;2022-12-18T14:58:20;38.35;;;13.68;;
64826;SDS011;51265;53.972;12.286;2022-12-18T15:00:45;41.30;;;15.63;;
64826;SDS011;51265;53.972;12.286;2022-12-18T15:03:12;43.33;;;14.63;;
64826;SDS011;51265;53.972;12.286;2022-12-18T15:05:44;35.00;;;13.50;;
64826;SDS011;51265;53.972;12.286;2022-12-18T15:10:57;43.85;;;14.43;;
64826;SDS011;51265;53.972;12.286;2022-12-18T15:13:23;34.17;;;13.07;;
64826;SDS011;51265;53.972;12.286;2022-12-18T15:15:50;39.65;;;13.57;;
64826;SDS011;51265;53.972;12.286;2022-12-18T15:18:18;34.58;;;12.95;;
64826;SDS011;51265;53.972;12.286;2022-12-18T15:20:52;46.92;;;12.80;;
64826;SDS011;51265;53.972;12.286;2022-12-18T15:23:27;40.45;;;13.52;;
64826;SDS011;51265;53.972;12.286;2022-12-18T15:25:58;44.63;;;13.40;;
64826;SDS011;51265;53.972;12.286;2022-12-18T15:28:27;36.63;;;14.27;;
64826;SDS011;51265;53.972;12.286;2022-12-18T15:33:41;36.80;;;14.07;;
64826;SDS011;51265;53.972;12.286;2022-12-18T15:36:10;38.10;;;14.82;;
64826;SDS011;51265;53.972;12.286;2022-12-18T15:38:41;43.97;;;14.63;;
64826;SDS011;51265;53.972;12.286;2022-12-18T15:41:13;36.67;;;12.88;;
64826;SDS011;51265;53.972;12.286;2022-12-18T15:43:40;39.10;;;13.63;;
64826;SDS011;51265;53.972;12.286;2022-12-18T15:46:11;39.58;;;12.45;;
64826;SDS011;51265;53.972;12.286;2022-12-18T15:48:39;40.13;;;13.82;;
64826;SDS011;51265;53.972;12.286;2022-12-18T15:51:16;38.05;;;13.45;;
64826;SDS011;51265;53.972;12.286;2022-12-18T15:53:50;37.08;;;13.02;;
64826;SDS011;51265;53.972;12.286;2022-12-18T15:56:22;36.78;;;14.05;;
64826;SDS011;51265;53.972;12.286;2022-12-18T15:59:25;37.65;;;13.40;;
64826;SDS011;51265;53.972;12.286;2022-12-18T16:01:51;31.67;;;12.18;;
64826;SDS011;51265;53.972;12.286;2022-12-18T16:04:18;34.03;;;12.30;;
64826;SDS011;51265;53.972;12.286;2022-12-18T16:06:46;31.23;;;12.73;;
64826;SDS011;51265;53.972;12.286;2022-12-18T16:09:13;34.75;;;12.80;;